Time;durP1;ratioP1;P1;durP2;ratioP2;P2;SDS_P1;SDS_P2;PMS_P1;PMS_P2;Temp;Humidity;BMP_temperature;BMP_pressure;BME280_temperature;BME280_humidity;BME280_pressure;Samples;Min_cycle;Max_cycle;Signal;HPM_P1;HPM_P2
2020/12/26 00:02:26;;;;;;;6.70;2.00;;;;;;;0.04;90.91;101342.69;5047632;28;20275;-83
2020/12/26 00:04:53;;;;;;;4.47;1.40;;;;;;;0.05;90.91;101343.53;5043350;28;20197;-82
2020/12/26 00:07:18;;;;;;;5.23;1.87;;;;;;;0.01;90.67;101340.03;5036499;28;20210;-84
2020/12/26 00:09:44;;;;;;;3.13;1.63;;;;;;;0.01;90.86;101339.16;5038979;28;20223;-84
2020/12/26 00:12:13;;;;;;;2.03;1.20;;;;;;;-0.01;90.45;101350.22;5042112;28;20691;-83
2020/12/26 00:14:38;;;;;;;3.17;1.60;;;;;;;-0.01;90.99;101341.69;5044874;28;20200;-83
2020/12/26 00:17:04;;;;;;;3.70;1.53;;;;;;;-0.05;nan;101339.88;5038327;28;20292;-83
2020/12/26 00:19:31;;;;;;;2.63;1.70;;;;;;;-0.07;90.26;101347.50;5039118;28;20262;-83
2020/12/26 00:21:58;;;;;;;2.37;1.10;;;;;;;-0.08;90.61;101338.06;5042633;28;20228;-84
2020/12/26 00:24:24;;;;;;;5.43;1.77;;;;;;;-0.08;90.42;101339.75;5045488;28;20962;-82
2020/12/26 00:26:56;;;;;;;2.60;1.47;;;;;;;-0.09;90.60;101345.69;5042184;28;20251;-82
2020/12/26 00:29:22;;;;;;;2.17;1.40;;;;;;;-0.10;90.52;101342.28;5042889;28;20216;-82
2020/12/26 00:31:48;;;;;;;2.63;1.40;;;;;;;-0.10;90.88;101341.41;5046527;28;20200;-82
2020/12/26 00:34:16;;;;;;;2.37;1.30;;;;;;;-0.14;90.33;101340.47;5031794;28;20208;-83
2020/12/26 00:36:42;;;;;;;2.70;1.20;;;;;;;-0.12;91.29;101340.47;5046030;28;20205;-83
2020/12/26 00:39:09;;;;;;;6.40;1.67;;;;;;;-0.14;90.76;101339.56;5049393;28;20216;-83
2020/12/26 00:41:37;;;;;;;2.43;1.20;;;;;;;-0.16;91.00;101336.97;5046245;28;20226;-84
2020/12/26 00:44:03;;;;;;;2.37;1.67;;;;;;;-0.17;90.47;101337.81;5043573;28;20221;-82
2020/12/26 00:46:29;;;;;;;2.80;1.30;;;;;;;-0.18;90.34;101332.63;5040488;28;20680;-82
2020/12/26 00:48:54;;;;;;;1.93;1.13;;;;;;;-0.17;90.27;101329.25;5066106;28;20201;-83
2020/12/26 00:51:20;;;;;;;5.37;1.33;;;;;;;-0.18;89.97;101330.06;5045514;28;20291;-83
2020/12/26 00:53:46;;;;;;;2.97;1.67;;;;;;;-0.20;90.33;101333.44;5044181;28;20407;-84
2020/12/26 00:56:14;;;;;;;4.00;1.60;;;;;;;-0.20;90.16;101336.00;5041391;28;20193;-82
2020/12/26 00:58:40;;;;;;;2.83;1.30;;;;;;;-0.22;89.47;101342.78;5047039;28;20582;-82
2020/12/26 01:01:07;;;;;;;3.03;1.13;;;;;;;-0.22;89.87;101342.78;5048114;28;20235;-82
2020/12/26 01:03:57;;;;;;;4.33;1.50;;;;;;;-0.23;89.27;101346.19;5038660;28;20579;-82
2020/12/26 01:06:23;;;;;;;1.60;1.07;;;;;;;-0.23;88.66;101342.72;5040141;28;20212;-82
2020/12/26 01:08:50;;;;;;;2.37;1.03;;;;;;;-0.21;90.07;101339.41;5048647;28;20196;-83
2020/12/26 01:11:17;;;;;;;2.57;0.90;;;;;;;-0.21;89.81;101333.44;5048963;28;20209;-84
2020/12/26 01:13:43;;;;;;;1.43;1.20;;;;;;;-0.20;90.36;101342.84;5050598;28;20261;-84
2020/12/26 01:16:10;;;;;;;2.10;1.20;;;;;;;-0.24;90.13;101338.44;5048509;28;20208;-83
2020/12/26 01:18:36;;;;;;;2.70;1.47;;;;;;;-0.24;90.82;101339.31;5052821;28;20207;-82
2020/12/26 01:21:04;;;;;;;1.80;1.00;;;;;;;-0.24;90.17;101346.13;5051695;28;20208;-84
2020/12/26 01:23:30;;;;;;;1.63;1.10;;;;;;;-0.22;91.11;101347.06;5043288;28;20368;-84
2020/12/26 01:25:56;;;;;;;3.37;1.43;;;;;;;-0.26;89.83;101353.78;5052021;28;20208;-84
2020/12/26 01:28:23;;;;;;;2.40;1.43;;;;;;;-0.25;90.29;101359.75;5040541;28;20202;-81
2020/12/26 01:30:49;;;;;;;2.53;1.30;;;;;;;-0.27;89.94;101358.84;5057364;28;20247;-84
2020/12/26 01:33:18;;;;;;;1.87;1.00;;;;;;;-0.25;90.27;101367.47;5041653;28;20205;-84
2020/12/26 01:35:43;;;;;;;3.10;1.20;;;;;;;-0.26;90.03;101365.75;5071174;28;20236;-83
2020/12/26 01:38:09;;;;;;;1.57;1.20;;;;;;;-0.28;89.68;101357.09;5045393;28;20201;-82
2020/12/26 01:40:36;;;;;;;4.03;1.00;;;;;;;-0.27;89.84;101369.97;5050796;28;20204;-82
2020/12/26 01:43:02;;;;;;;1.17;1.07;;;;;;;-0.28;90.04;101364.78;5054121;28;20204;-84
2020/12/26 01:45:29;;;;;;;1.97;0.73;;;;;;;-0.26;90.58;101365.75;5053357;28;20201;-84
2020/12/26 01:47:55;;;;;;;1.83;1.00;;;;;;;-0.28;90.27;101367.34;5053610;28;20189;-83
2020/12/26 01:50:21;;;;;;;1.70;1.00;;;;;;;-0.29;90.47;101357.94;5051977;28;20222;-84
2020/12/26 01:52:48;;;;;;;1.27;1.10;;;;;;;-0.32;90.06;101361.28;5055296;28;20210;-85
2020/12/26 01:55:15;;;;;;;1.17;0.90;;;;;;;-0.33;89.46;101358.69;5035393;28;20209;-83
2020/12/26 01:57:50;;;;;;;1.00;0.90;;;;;;;-0.31;89.38;101362.16;5044952;28;20205;-82
2020/12/26 02:00:16;;;;;;;3.07;1.13;;;;;;;-0.33;89.68;101367.25;5036753;28;20241;-82
2020/12/26 02:02:43;;;;;;;1.40;1.13;;;;;;;-0.33;89.70;101362.13;5040452;28;20233;-83
2020/12/26 02:05:08;;;;;;;2.07;1.17;;;;;;;-0.33;89.62;101357.00;5044858;28;20187;-84
2020/12/26 02:07:35;;;;;;;1.47;1.03;;;;;;;-0.35;89.81;101358.63;5045932;28;20729;-83
2020/12/26 02:10:01;;;;;;;1.87;1.13;;;;;;;-0.36;89.76;101366.28;5042499;28;20228;-82
2020/12/26 02:12:27;;;;;;;2.27;1.30;;;;;;;-0.38;89.45;101364.53;5043158;28;20200;-83
2020/12/26 02:14:52;;;;;;;1.67;0.90;;;;;;;-0.40;89.48;101358.50;5049612;28;20274;-82
2020/12/26 02:17:24;;;;;;;1.70;1.10;;;;;;;-0.38;90.11;101361.09;5037616;28;20517;-82
2020/12/26 02:19:51;;;;;;;5.43;1.20;;;;;;;-0.40;90.47;101360.19;5037888;28;20462;-83
2020/12/26 02:22:17;;;;;;;4.63;1.27;;;;;;;-0.44;89.59;101366.03;5038197;28;20213;-82
2020/12/26 02:24:44;;;;;;;2.67;1.00;;;;;;;-0.44;89.77;101371.16;5047294;28;20199;-82
2020/12/26 02:27:10;;;;;;;1.90;1.37;;;;;;;-0.43;90.34;101363.50;5036991;28;20228;-83
2020/12/26 02:29:35;;;;;;;2.30;1.27;;;;;;;-0.47;89.90;101363.38;5043615;28;20276;-84
2020/12/26 02:32:01;;;;;;;4.63;1.40;;;;;;;-0.48;90.25;101359.94;5046023;28;20200;-81
2020/12/26 02:34:27;;;;;;;2.77;1.20;;;;;;;-0.48;90.41;101364.19;5048854;28;20232;-82
2020/12/26 02:36:53;;;;;;;2.63;1.33;;;;;;;-0.48;90.78;101371.88;5051283;28;20215;-82
2020/12/26 02:39:19;;;;;;;3.00;1.60;;;;;;;-0.51;90.62;101366.66;5043539;28;20239;-82
2020/12/26 02:41:47;;;;;;;2.37;1.30;;;;;;;-0.50;90.58;101363.28;5053721;28;20204;-82
2020/12/26 02:44:14;;;;;;;3.53;1.30;;;;;;;-0.51;90.67;101369.22;5049387;28;20184;-84
2020/12/26 02:46:40;;;;;;;6.73;1.40;;;;;;;-0.53;90.01;101371.72;5043682;28;20659;-82
2020/12/26 02:49:05;;;;;;;3.63;1.53;;;;;;;-0.55;89.86;101368.25;5042075;28;20227;-82
2020/12/26 02:51:33;;;;;;;3.17;1.70;;;;;;;-0.55;90.08;101375.09;5045259;28;20205;-83
2020/12/26 02:53:59;;;;;;;3.20;1.67;;;;;;;-0.57;89.89;101365.66;5045904;28;20211;-83
2020/12/26 02:56:25;;;;;;;2.83;1.57;;;;;;;-0.58;89.98;101369.03;5046950;28;20301;-83
2020/12/26 02:58:52;;;;;;;3.30;1.50;;;;;;;-0.60;89.58;101362.13;5050619;28;20256;-82
2020/12/26 03:01:18;;;;;;;2.90;1.37;;;;;;;-0.59;89.87;101369.84;5043049;28;20619;-82
2020/12/26 03:03:44;;;;;;;2.93;1.70;;;;;;;-0.60;89.48;101364.69;5048105;28;20200;-82
2020/12/26 03:06:10;;;;;;;2.17;1.40;;;;;;;-0.62;89.43;101363.75;5051269;28;20214;-85
2020/12/26 03:08:36;;;;;;;2.90;1.33;;;;;;;-0.60;89.42;101374.94;5037255;28;20219;-83
2020/12/26 03:11:02;;;;;;;1.93;1.37;;;;;;;-0.63;88.37;101373.16;5052155;28;20199;-83
2020/12/26 03:13:29;;;;;;;6.50;1.97;;;;;;;-0.63;88.73;101375.72;5043345;28;20211;-83
2020/12/26 03:15:56;;;;;;;2.17;1.57;;;;;;;-0.63;88.68;101383.41;5055211;28;20208;-84
2020/12/26 03:18:22;;;;;;;1.27;1.17;;;;;;;-0.62;89.13;101379.13;5048261;28;20219;-83
2020/12/26 03:20:48;;;;;;;2.40;1.50;;;;;;;-0.63;89.31;101375.72;5037768;28;20219;-82
2020/12/26 03:23:14;;;;;;;1.37;1.17;;;;;;;-0.65;88.75;101379.03;5043716;28;20218;-84
2020/12/26 03:25:39;;;;;;;3.13;1.47;;;;;;;-0.64;88.64;101385.91;5048724;28;20195;-84
2020/12/26 03:28:05;;;;;;;2.17;1.20;;;;;;;-0.65;89.40;101374.81;5045702;28;20208;-82
2020/12/26 03:30:31;;;;;;;1.37;1.20;;;;;;;-0.64;89.56;101378.22;5037012;28;20270;-83
2020/12/26 03:32:58;;;;;;;2.23;1.70;;;;;;;-0.67;88.43;101384.13;5041425;28;20199;-83
2020/12/26 03:35:24;;;;;;;1.37;1.17;;;;;;;-0.68;88.79;101387.50;5045831;28;20213;-85
2020/12/26 03:37:50;;;;;;;2.50;1.33;;;;;;;-0.68;88.64;101390.06;5047307;28;20206;-83
2020/12/26 03:40:16;;;;;;;2.23;1.67;;;;;;;-0.68;89.04;101397.75;5049401;28;20912;-84
2020/12/26 03:42:42;;;;;;;1.80;1.37;;;;;;;-0.69;89.36;101392.56;5045340;28;20246;-83
2020/12/26 03:45:10;;;;;;;2.50;1.37;;;;;;;-0.69;89.08;101398.56;5039633;28;20264;-83
2020/12/26 03:47:36;;;;;;;1.50;1.30;;;;;;;-0.70;88.41;101394.28;5046518;28;20204;-85
2020/12/26 03:50:03;;;;;;;1.87;1.37;;;;;;;-0.70;88.63;101401.06;5050364;28;20250;-83
2020/12/26 03:52:29;;;;;;;2.03;1.30;;;;;;;-0.72;88.06;101388.25;5040752;28;20196;-84
2020/12/26 03:54:54;;;;;;;4.13;1.30;;;;;;;-0.72;87.12;101398.47;5047075;28;20215;-85
2020/12/26 03:57:20;;;;;;;4.23;1.33;;;;;;;-0.72;87.62;101393.34;5039370;28;20196;-85
2020/12/26 03:59:46;;;;;;;3.23;1.60;;;;;;;-0.71;88.12;101394.22;5045458;28;20238;-84
2020/12/26 04:02:12;;;;;;;1.70;1.43;;;;;;;-0.72;88.06;101397.59;5043286;28;20239;-83
2020/12/26 04:04:38;;;;;;;2.87;1.50;;;;;;;-0.74;87.87;101399.22;5049466;28;20207;-83
2020/12/26 04:07:04;;;;;;;4.70;1.57;;;;;;;-0.75;88.26;101390.69;5054045;28;20225;-82
2020/12/26 04:09:30;;;;;;;2.70;1.50;;;;;;;-0.73;88.63;101403.53;5034847;28;20215;-83
2020/12/26 04:11:56;;;;;;;4.47;1.53;;;;;;;-0.77;88.40;101403.44;5029632;28;20192;-83
2020/12/26 04:14:22;;;;;;;3.63;1.67;;;;;;;-0.78;89.12;101406.81;5034386;28;20657;-82
2020/12/26 04:16:48;;;;;;;2.17;1.50;;;;;;;-0.78;88.92;101405.94;5032013;28;20662;-83
2020/12/26 04:19:14;;;;;;;4.10;1.80;;;;;;;-0.79;89.27;101407.66;5033268;28;20220;-83
2020/12/26 04:21:40;;;;;;;4.83;1.87;;;;;;;-0.79;89.75;101417.03;5034751;28;20207;-82
2020/12/26 04:24:07;;;;;;;4.83;2.10;;;;;;;-0.81;89.68;101410.97;5034821;28;20290;-83
2020/12/26 04:26:32;;;;;;;2.93;2.00;;;;;;;-0.81;89.74;101418.66;5032482;28;20196;-83
2020/12/26 04:28:58;;;;;;;3.60;1.67;;;;;;;-0.83;90.02;101418.59;5032510;28;20573;-83
2020/12/26 04:31:24;;;;;;;3.53;1.70;;;;;;;-0.83;89.91;101423.72;5040478;28;20661;-83
2020/12/26 04:33:50;;;;;;;3.03;2.00;;;;;;;-0.84;89.93;101432.22;5040143;28;20739;-83
2020/12/26 04:36:16;;;;;;;4.17;1.50;;;;;;;-0.86;89.90;101426.19;5038649;28;20245;-84
2020/12/26 04:38:42;;;;;;;2.57;1.60;;;;;;;-0.88;89.83;101430.41;5045467;28;20317;-82
2020/12/26 04:41:08;;;;;;;5.73;2.07;;;;;;;-0.87;90.25;101431.25;5035456;28;20208;-82
2020/12/26 04:43:34;;;;;;;2.77;2.10;;;;;;;-0.90;90.38;101426.03;5041326;28;20279;-85
2020/12/26 04:46:10;;;;;;;3.07;1.80;;;;;;;-0.88;90.59;101432.06;5045895;28;20672;-82
2020/12/26 04:48:41;;;;;;;4.03;1.90;;;;;;;-0.92;90.43;101425.97;5036186;28;20192;-82
2020/12/26 04:51:10;;;;;;;2.23;1.80;;;;;;;-0.94;90.46;101422.50;5032225;28;20200;-82
2020/12/26 04:53:44;;;;;;;2.20;1.80;;;;;;;-0.95;90.77;101441.22;5039649;28;20204;-82
2020/12/26 04:56:11;;;;;;;2.83;1.80;;;;;;;-0.95;90.72;101438.66;5040544;28;20648;-83
2020/12/26 04:58:40;;;;;;;2.97;2.20;;;;;;;-0.98;90.55;101454.81;5039502;28;20666;-83
2020/12/26 05:01:06;;;;;;;3.27;2.53;;;;;;;-0.97;90.30;101445.44;5032898;28;20271;-83
2020/12/26 05:03:33;;;;;;;2.83;2.20;;;;;;;-0.99;90.27;101442.81;5044811;28;20196;-83
2020/12/26 05:06:04;;;;;;;2.47;2.17;;;;;;;-1.02;90.30;101447.84;5047450;28;20210;-83
2020/12/26 05:08:30;;;;;;;3.90;2.63;;;;;;;-1.05;90.36;101445.19;5036563;28;20186;-83
2020/12/26 05:10:56;;;;;;;4.40;2.40;;;;;;;-1.06;90.52;101455.34;5042935;28;20234;-83
2020/12/26 05:13:23;;;;;;;4.10;3.07;;;;;;;-1.09;90.67;101452.69;5036145;28;20438;-82
2020/12/26 05:15:49;;;;;;;5.47;3.13;;;;;;;-1.11;91.15;101447.50;5033795;28;20848;-83
2020/12/26 05:18:16;;;;;;;3.73;2.67;;;;;;;-1.12;90.95;101448.34;5050973;28;20229;-85
2020/12/26 05:20:43;;;;;;;4.63;3.20;;;;;;;-1.12;91.15;101445.78;5043421;28;20287;-83
2020/12/26 05:23:10;;;;;;;3.93;2.77;;;;;;;-1.17;90.76;101444.75;5046976;28;20220;-82
2020/12/26 05:25:40;;;;;;;3.87;3.23;;;;;;;-1.16;91.34;101443.94;5049039;28;20230;-83
2020/12/26 05:28:12;;;;;;;4.73;3.47;;;;;;;-1.18;91.28;101451.56;5043505;28;20270;-85
2020/12/26 05:30:40;;;;;;;4.43;3.13;;;;;;;-1.20;91.27;101445.50;5040841;28;20702;-83
2020/12/26 05:33:07;;;;;;;3.87;2.87;;;;;;;-1.20;91.05;101447.19;5040597;28;20204;-83
2020/12/26 05:35:39;;;;;;;4.13;3.10;;;;;;;-1.21;90.93;101448.03;5038531;28;20193;-82
2020/12/26 05:38:26;;;;;;;4.83;3.20;;;;;;;-1.23;91.56;101447.97;5041501;28;20685;-82
2020/12/26 05:40:54;;;;;;;5.90;2.93;;;;;;;-1.26;91.63;101434.19;5040447;28;20635;-83
2020/12/26 05:43:22;;;;;;;3.77;2.97;;;;;;;-1.31;91.98;101423.78;5045351;28;20672;-82
2020/12/26 05:45:49;;;;;;;5.17;3.60;;;;;;;-1.36;91.87;101428.75;5027967;28;20204;-82
2020/12/26 05:48:16;;;;;;;4.43;3.17;;;;;;;-1.42;91.63;101425.13;5037238;28;20193;-82
2020/12/26 05:50:43;;;;;;;5.50;3.40;;;;;;;-1.45;91.86;101430.13;5042945;28;20243;-82
2020/12/26 05:53:12;;;;;;;7.00;3.20;;;;;;;-1.48;91.93;101428.31;5038101;28;20204;-82
2020/12/26 05:55:40;;;;;;;4.27;2.97;;;;;;;-1.50;92.10;101429.94;5036452;28;20210;-82
2020/12/26 05:58:06;;;;;;;4.73;3.20;;;;;;;-1.52;92.20;101427.31;5035797;28;20258;-83
2020/12/26 06:00:34;;;;;;;5.00;3.60;;;;;;;-1.56;92.37;101417.81;5033386;28;20264;-83
2020/12/26 06:03:20;;;;;;;4.00;3.13;;;;;;;-1.58;92.42;101418.59;5043494;28;20226;-82
2020/12/26 06:05:47;;;;;;;6.30;3.13;;;;;;;-1.59;92.64;101421.94;5036759;28;20250;-83
2020/12/26 06:08:15;;;;;;;6.20;3.87;;;;;;;-1.60;92.78;101421.09;5028158;28;20212;-82
2020/12/26 06:10:47;;;;;;;5.30;3.47;;;;;;;-1.61;92.85;101426.13;5032662;28;20232;-82
2020/12/26 06:13:15;;;;;;;8.17;3.47;;;;;;;-1.61;92.95;101433.81;5034035;28;20196;-83
2020/12/26 06:15:46;;;;;;;5.30;3.63;;;;;;;-1.60;93.18;101430.41;5042709;28;20204;-82
2020/12/26 06:18:14;;;;;;;5.53;4.00;;;;;;;-1.61;93.68;101424.44;5028597;28;20200;-82
2020/12/26 06:20:42;;;;;;;8.73;3.60;;;;;;;-1.65;93.02;101431.94;5031823;28;20263;-82
2020/12/26 06:23:14;;;;;;;6.33;4.07;;;;;;;-1.66;93.41;101443.00;5046799;28;20211;-81
2020/12/26 06:25:42;;;;;;;6.00;4.20;;;;;;;-1.67;93.65;101439.56;5031290;28;20263;-82
2020/12/26 06:28:20;;;;;;;5.23;3.80;;;;;;;-1.65;94.04;101442.16;5037517;28;20196;-82
2020/12/26 06:30:48;;;;;;;7.43;4.27;;;;;;;-1.71;93.65;101450.47;5036193;28;20275;-81
2020/12/26 06:33:14;;;;;;;5.87;4.03;;;;;;;-1.72;93.64;101451.31;5026038;28;20539;-82
2020/12/26 06:35:41;;;;;;;8.20;4.73;;;;;;;-1.75;94.07;101452.06;5038492;28;20212;-82
2020/12/26 06:38:13;;;;;;;5.77;4.67;;;;;;;-1.77;94.01;101458.81;5038885;28;20266;-82
2020/12/26 06:40:49;;;;;;;7.63;4.27;;;;;;;-1.78;94.14;101457.06;5035534;28;20229;-82
2020/12/26 06:43:48;;;;;;;7.63;4.77;;;;;;;-1.82;94.20;101465.44;5051960;28;20233;-84
2020/12/26 06:46:39;;;;;;;7.00;4.13;;;;;;;-1.83;94.34;101461.16;5043387;28;20224;-85
2020/12/26 06:49:05;;;;;;;5.33;4.03;;;;;;;-1.86;94.79;101463.59;5042945;28;20215;-83
2020/12/26 06:51:33;;;;;;;6.37;4.63;;;;;;;-1.91;94.84;101453.16;5050652;28;20199;-83
2020/12/26 06:54:01;;;;;;;5.90;4.27;;;;;;;-1.98;94.86;101461.41;5048697;28;20268;-83
2020/12/26 06:56:47;;;;;;;6.20;4.50;;;;;;;-2.06;95.41;101461.94;5053339;28;20235;-84
2020/12/26 06:59:15;;;;;;;5.80;4.23;;;;;;;-2.10;95.81;101453.28;5047968;28;20218;-83
2020/12/26 07:01:43;;;;;;;7.73;5.10;;;;;;;-2.21;95.83;101454.56;5048716;28;20236;-83
2020/12/26 07:04:13;;;;;;;9.03;4.90;;;;;;;-2.28;96.23;101450.88;5045786;28;20208;-84
2020/12/26 07:06:40;;;;;;;7.63;4.87;;;;;;;-2.36;95.79;101447.16;5048848;28;20649;-83
2020/12/26 07:09:07;;;;;;;6.60;4.73;;;;;;;-2.41;96.23;101453.75;5046181;28;20254;-85
2020/12/26 07:11:43;;;;;;;6.63;4.53;;;;;;;-2.47;96.50;101454.38;5036737;28;20653;-82
2020/12/26 07:14:09;;;;;;;6.63;4.27;;;;;;;-2.52;96.33;101449.06;5042897;28;20211;-85
2020/12/26 07:16:41;;;;;;;7.93;4.93;;;;;;;-2.60;96.84;101450.47;5041535;28;20259;-82
2020/12/26 07:19:28;;;;;;;7.03;3.70;;;;;;;-2.58;97.52;101447.97;5046541;28;20254;-83
2020/12/26 07:21:55;;;;;;;6.20;4.40;;;;;;;-2.66;97.23;101440.00;5042666;28;20210;-84
2020/12/26 07:24:23;;;;;;;6.93;4.53;;;;;;;-2.70;97.17;101443.25;5050449;28;20456;-82
2020/12/26 07:26:49;;;;;;;7.10;4.27;;;;;;;-2.73;97.28;101441.41;5060959;28;20442;-83
2020/12/26 07:29:33;;;;;;;5.07;3.83;;;;;;;-2.76;97.53;101441.31;5043295;28;20218;-82
2020/12/26 07:32:00;;;;;;;6.53;3.90;;;;;;;-2.80;97.42;101456.44;5043922;28;20739;-83
2020/12/26 07:34:40;;;;;;;4.90;3.67;;;;;;;-2.80;98.13;101457.28;5048246;28;20213;-83
2020/12/26 07:37:07;;;;;;;5.23;3.97;;;;;;;-2.82;98.25;101460.59;5047144;28;20459;-83
2020/12/26 07:39:33;;;;;;;4.57;3.77;;;;;;;-2.80;98.50;101464.09;5051813;28;20222;-82
2020/12/26 07:41:59;;;;;;;5.57;3.70;;;;;;;-2.79;98.77;101469.25;5042933;28;20759;-84
2020/12/26 07:44:29;;;;;;;9.07;5.00;;;;;;;-2.80;98.60;101469.19;5063255;28;20475;-82
2020/12/26 07:46:56;;;;;;;21.77;8.67;;;;;;;-2.80;98.73;101467.50;5038023;28;20439;-82
2020/12/26 07:49:24;;;;;;;34.43;11.67;;;;;;;-2.78;98.90;101465.00;5041057;28;20627;-84
2020/12/26 07:52:03;;;;;;;21.23;7.93;;;;;;;-2.74;99.00;101456.69;5035777;28;20450;-83
2020/12/26 07:54:29;;;;;;;11.27;5.47;;;;;;;-2.78;98.32;101462.47;5048799;28;20449;-83
2020/12/26 07:56:55;;;;;;;9.67;5.10;;;;;;;-2.75;98.58;101465.16;5049618;28;20491;-85
2020/12/26 07:59:22;;;;;;;6.07;4.50;;;;;;;-2.75;98.35;101467.72;5053629;28;20218;-84
2020/12/26 08:01:50;;;;;;;7.43;4.03;;;;;;;-2.72;98.42;101470.41;5056302;28;20610;-83
2020/12/26 08:04:16;;;;;;;11.73;6.00;;;;;;;-2.69;98.38;101466.28;5066615;28;20251;-85
2020/12/26 08:06:45;;;;;;;6.37;3.97;;;;;;;-2.67;98.35;101467.22;5059620;28;20819;-84
2020/12/26 08:09:12;;;;;;;9.30;4.63;;;;;;;-2.65;98.29;101474.94;5053671;28;20229;-83
2020/12/26 08:11:37;;;;;;;6.83;4.40;;;;;;;-2.61;98.02;101476.81;5057239;28;20443;-82
2020/12/26 08:14:03;;;;;;;7.13;3.77;;;;;;;-2.57;98.07;101481.25;5046117;28;20477;-82
2020/12/26 08:16:30;;;;;;;8.27;4.13;;;;;;;-2.50;97.71;101484.91;5049340;28;20272;-82
2020/12/26 08:18:56;;;;;;;9.77;4.40;;;;;;;-2.42;97.23;101480.97;5056567;28;20202;-83
2020/12/26 08:21:22;;;;;;;6.23;3.83;;;;;;;-2.39;96.67;101475.13;5051375;28;20207;-82
2020/12/26 08:23:56;;;;;;;6.13;4.13;;;;;;;-2.36;96.29;101481.22;5049624;28;20195;-83
2020/12/26 08:26:23;;;;;;;7.97;4.57;;;;;;;-2.32;96.40;101480.56;5048915;28;20199;-83
2020/12/26 08:28:50;;;;;;;7.27;4.30;;;;;;;-2.25;96.05;101486.78;5050092;28;20453;-83
2020/12/26 08:31:21;;;;;;;9.07;5.03;;;;;;;-2.20;95.50;101479.28;5054624;28;20399;-82
2020/12/26 08:33:48;;;;;;;8.60;4.70;;;;;;;-2.13;95.15;101484.72;5038445;28;20215;-82
2020/12/26 08:36:25;;;;;;;8.73;4.33;;;;;;;-2.08;95.17;101484.88;5062621;28;20517;-83
2020/12/26 08:38:56;;;;;;;6.70;4.07;;;;;;;-2.02;95.40;101482.56;5041848;28;20469;-84
2020/12/26 08:41:23;;;;;;;10.10;4.77;;;;;;;-1.97;95.09;101493.84;5046316;28;20215;-82
2020/12/26 08:43:49;;;;;;;7.87;4.80;;;;;;;-1.95;94.71;101496.47;5059609;28;20581;-83
2020/12/26 08:46:16;;;;;;;11.33;4.73;;;;;;;-1.93;94.01;101497.41;5044315;28;20893;-83
2020/12/26 08:48:42;;;;;;;9.73;4.80;;;;;;;-1.88;93.55;101495.00;5045664;28;20211;-82
2020/12/26 08:51:16;;;;;;;7.53;4.37;;;;;;;-1.82;93.46;101502.91;5051441;28;20676;-83
2020/12/26 08:53:44;;;;;;;6.87;4.43;;;;;;;-1.76;93.01;101501.47;5050738;28;20206;-85
2020/12/26 08:56:10;;;;;;;9.93;4.70;;;;;;;-1.69;92.50;101496.56;5048152;28;20203;-83
2020/12/26 08:58:36;;;;;;;5.50;3.80;;;;;;;-1.63;91.98;101501.94;5053028;28;20204;-81
2020/12/26 09:01:04;;;;;;;5.87;3.90;;;;;;;-1.59;91.99;101499.53;5055182;28;20314;-82
2020/12/26 09:03:32;;;;;;;5.20;3.50;;;;;;;-1.53;90.88;101498.88;5053892;28;20249;-84
2020/12/26 09:05:59;;;;;;;7.00;3.70;;;;;;;-1.49;91.37;101503.31;5045756;28;20203;-82
2020/12/26 09:08:30;;;;;;;7.17;3.40;;;;;;;-1.46;90.63;101506.00;5056660;28;20196;-81
2020/12/26 09:11:04;;;;;;;8.37;3.60;;;;;;;-1.42;90.61;101502.72;5058891;28;20223;-82
2020/12/26 09:13:34;;;;;;;23.77;8.27;;;;;;;-1.37;90.38;101508.88;5035963;28;20231;-82
2020/12/26 09:16:04;;;;;;;5.63;3.63;;;;;;;-1.33;90.09;101503.06;5058092;28;20202;-83
2020/12/26 09:18:35;;;;;;;7.03;3.50;;;;;;;-1.32;89.30;101509.03;5049578;28;20220;-83
2020/12/26 09:21:01;;;;;;;6.10;3.37;;;;;;;-1.30;89.58;101504.88;5041560;28;20240;-82
2020/12/26 09:23:32;;;;;;;5.23;3.20;;;;;;;-1.27;89.70;101504.09;5050112;28;20230;-81
2020/12/26 09:26:09;;;;;;;6.73;4.13;;;;;;;-1.18;89.15;101513.00;5045429;28;20208;-82
2020/12/26 09:28:44;;;;;;;9.97;4.47;;;;;;;-1.09;89.17;101521.78;5037716;28;20200;-84
2020/12/26 09:31:10;;;;;;;4.20;2.93;;;;;;;-1.01;88.48;101528.94;5052322;28;20191;-82
2020/12/26 09:33:36;;;;;;;4.07;2.70;;;;;;;-0.92;87.99;101532.66;5051283;28;20206;-81
2020/12/26 09:36:03;;;;;;;4.30;2.57;;;;;;;-0.84;88.14;101534.66;5049014;28;20204;-82
2020/12/26 09:38:30;;;;;;;5.60;2.80;;;;;;;-0.78;87.68;101531.44;5047050;28;20196;-82
2020/12/26 09:40:56;;;;;;;7.23;2.93;;;;;;;-0.72;87.97;101533.31;5034358;28;20238;-82
2020/12/26 09:43:21;;;;;;;5.30;3.33;;;;;;;-0.67;87.30;101534.34;5026042;28;20208;-82
2020/12/26 09:45:48;;;;;;;5.40;3.03;;;;;;;-0.66;87.38;101528.44;5032545;28;20656;-81
2020/12/26 09:48:14;;;;;;;5.37;3.13;;;;;;;-0.64;86.87;101525.09;5045914;28;20249;-82
2020/12/26 09:50:40;;;;;;;4.50;3.13;;;;;;;-0.63;86.81;101528.53;5021272;28;20606;-81
2020/12/26 09:53:06;;;;;;;4.03;2.60;;;;;;;-0.61;86.84;101524.34;5029727;28;20193;-82
2020/12/26 09:55:32;;;;;;;7.00;3.87;;;;;;;-0.60;86.55;101519.28;5049145;28;20245;-83
2020/12/26 09:57:57;;;;;;;4.20;2.90;;;;;;;-0.54;86.76;101510.91;5032775;28;20557;-82
2020/12/26 10:00:23;;;;;;;5.93;3.00;;;;;;;-0.46;87.28;101506.03;5036478;28;21588;-81
2020/12/26 10:02:50;;;;;;;5.80;2.90;;;;;;;-0.34;88.02;101505.56;5037095;28;20228;-81
2020/12/26 10:05:18;;;;;;;4.57;2.80;;;;;;;-0.23;86.67;101501.66;5042167;28;20234;-83
2020/12/26 10:07:44;;;;;;;5.77;3.83;;;;;;;-0.11;86.36;101503.75;5049761;28;20203;-84
2020/12/26 10:10:10;;;;;;;6.50;4.57;;;;;;;0.02;86.17;101511.00;5042804;28;20224;-81
2020/12/26 10:12:36;;;;;;;7.87;5.47;;;;;;;0.14;86.10;101510.50;5037040;28;20690;-82
2020/12/26 10:15:03;;;;;;;8.03;4.17;;;;;;;0.20;85.27;101512.41;5049605;28;20464;-84
2020/12/26 10:17:29;;;;;;;11.60;7.13;;;;;;;0.23;84.48;101508.22;5037644;28;20202;-83
2020/12/26 10:19:55;;;;;;;6.77;3.70;;;;;;;0.22;84.38;101505.63;5049259;28;20245;-83
2020/12/26 10:22:21;;;;;;;6.37;3.77;;;;;;;0.29;85.14;101502.41;5050911;28;20207;-83
2020/12/26 10:24:47;;;;;;;8.37;5.07;;;;;;;0.35;84.98;101505.16;5053506;28;20214;-82
2020/12/26 10:27:13;;;;;;;7.37;3.97;;;;;;;0.37;84.07;101509.50;5041363;28;20203;-82
2020/12/26 10:29:39;;;;;;;10.33;5.00;;;;;;;0.42;84.30;101504.50;5044723;28;20260;-82
2020/12/26 10:32:05;;;;;;;6.17;4.07;;;;;;;0.45;83.18;101503.72;5039237;28;20222;-82
2020/12/26 10:34:30;;;;;;;6.20;3.70;;;;;;;0.40;82.97;101493.31;5040801;28;20264;-81
2020/12/26 10:36:57;;;;;;;4.87;3.73;;;;;;;0.40;83.93;101483.06;5046945;28;20199;-82
2020/12/26 10:39:23;;;;;;;5.37;3.60;;;;;;;0.36;83.80;101489.78;5044694;28;20224;-82
2020/12/26 10:41:49;;;;;;;5.87;3.30;;;;;;;0.29;83.57;101485.31;5039514;28;20235;-82
2020/12/26 10:44:15;;;;;;;7.27;3.83;;;;;;;0.25;83.77;101480.94;5051428;28;20188;-84
2020/12/26 10:46:41;;;;;;;9.43;3.97;;;;;;;0.21;83.93;101480.78;5049188;28;20233;-82
2020/12/26 10:49:08;;;;;;;6.10;3.93;;;;;;;0.15;84.50;101476.34;5041891;28;20220;-81
2020/12/26 10:51:34;;;;;;;5.20;3.57;;;;;;;0.10;84.56;101483.03;5057480;28;20199;-82
2020/12/26 10:54:01;;;;;;;9.37;5.20;;;;;;;0.10;84.71;101485.59;5044890;28;20199;-83
2020/12/26 10:56:27;;;;;;;6.73;4.00;;;;;;;0.11;84.91;101483.06;5047386;28;20198;-83
2020/12/26 10:58:53;;;;;;;8.00;4.77;;;;;;;0.11;84.67;101482.22;5037987;28;20203;-83
2020/12/26 11:01:28;;;;;;;4.87;3.80;;;;;;;0.08;84.29;101472.72;5043884;28;20228;-83
2020/12/26 11:03:54;;;;;;;6.77;3.83;;;;;;;0.10;84.73;101471.06;5052401;28;20196;-83
2020/12/26 11:06:20;;;;;;;7.77;4.10;;;;;;;0.16;84.95;101462.72;5050205;28;20691;-82
2020/12/26 11:08:46;;;;;;;7.50;4.27;;;;;;;0.18;85.36;101467.03;5041091;28;20212;-83
2020/12/26 11:11:12;;;;;;;9.13;3.73;;;;;;;0.23;84.37;101459.50;5053944;28;20214;-82
2020/12/26 11:13:38;;;;;;;7.00;3.80;;;;;;;0.34;84.27;101463.22;5044351;28;20258;-82
2020/12/26 11:16:04;;;;;;;6.07;3.80;;;;;;;0.37;83.56;101457.34;5038094;28;20195;-84
2020/12/26 11:18:30;;;;;;;5.20;3.03;;;;;;;0.41;83.44;101458.28;5048813;28;20206;-84
2020/12/26 11:20:56;;;;;;;6.43;3.27;;;;;;;0.36;83.82;101446.19;5055676;28;20231;-85
2020/12/26 11:23:22;;;;;;;8.63;3.70;;;;;;;0.37;82.79;101449.63;5040826;28;20224;-82
2020/12/26 11:25:47;;;;;;;6.67;3.47;;;;;;;0.46;83.05;101443.88;5049806;28;20265;-82
2020/12/26 11:28:14;;;;;;;4.90;3.13;;;;;;;0.50;82.99;101444.00;5038166;28;20227;-82
2020/12/26 11:30:40;;;;;;;6.17;3.50;;;;;;;0.52;83.17;101444.91;5041333;28;20275;-82